Disclaimer

Please do not use the information listed here in-flight or in-navigation, as they are not provided to us by the airports but are provided by volunteers, so they might be outdated.

Search


Regions


Airport information page

Radio informations:
Tower (TWR) - 119.7 MHz

Airport informations:
Latitude: 61° 02' 40.39" N
Longitude: 028° 08' 39.83" E
Elevation: 349 feet - 106 meters
Operating hours: N/A
Operating agency: Civil government, landing fees and diplomatic clearance may be required
Timezone: UTC+2(+3DT) - Last Sunday in March to last Sunday in October
Fuel: Jet A1, without icing nhibitor.

100/130 MIL Spec, low lead, aviation gasoline (BLUE)

Runway information:
06/24 - 8202 x 197 feet< - >2500 x 60 meters

Recent METARs:
EFLP 160620Z AUTO 21007KT 160V240 9000 OVC004 07/06 Q1032
EFLP 160650Z AUTO 20008KT 150V240 9999 OVC003 07/07 Q1032
EFLP 160720Z AUTO 20007KT 170V240 5000 OVC002 07/07 Q1033

Airport on the map: